createdAt,value
2022-09-12T00:00:45.999Z,13.70
2022-09-12T00:02:17.844Z,14.98
2022-09-12T00:03:51.853Z,14.23
2022-09-12T00:05:31.173Z,13.95
2022-09-12T00:07:03.018Z,13.20
2022-09-12T00:08:34.880Z,14.27
2022-09-12T00:10:07.707Z,13.83
2022-09-12T00:13:11.741Z,12.73
2022-09-12T00:14:43.565Z,14.82
2022-09-12T00:16:16.948Z,13.25
2022-09-12T00:17:48.787Z,13.43
2022-09-12T00:19:28.953Z,14.48
2022-09-12T00:21:04.902Z,18.05
2022-09-12T00:22:36.890Z,18.58
2022-09-12T00:24:11.733Z,17.60
2022-09-12T00:25:46.784Z,15.18
2022-09-12T00:27:18.541Z,15.13
2022-09-12T00:28:51.428Z,14.18
2022-09-12T00:31:55.077Z,13.38
2022-09-12T00:33:27.009Z,14.30
2022-09-12T00:34:58.774Z,14.27
2022-09-12T00:36:30.665Z,13.05
2022-09-12T00:38:02.435Z,13.00
2022-09-12T00:40:00.829Z,14.13
2022-09-12T00:41:35.081Z,13.13
2022-09-12T00:43:10.836Z,13.35
2022-09-12T00:44:43.995Z,12.35
2022-09-12T00:46:24.892Z,13.40
2022-09-12T00:48:00.684Z,12.02
2022-09-12T00:49:38.980Z,13.15
2022-09-12T00:51:11.430Z,13.00
2022-09-12T00:52:46.605Z,12.73
2022-09-12T00:54:24.766Z,13.75
2022-09-12T00:55:57.477Z,12.27
2022-09-12T00:57:33.333Z,15.05
2022-09-12T00:59:06.539Z,13.85
2022-09-12T01:00:44.264Z,13.68
2022-09-12T01:02:16.702Z,12.70
2022-09-12T01:03:48.999Z,14.05
2022-09-12T01:05:21.544Z,13.05
2022-09-12T01:06:55.100Z,12.90
2022-09-12T01:08:27.589Z,12.68
2022-09-12T01:09:59.987Z,12.95
2022-09-12T01:11:32.903Z,12.77
2022-09-12T01:13:06.379Z,11.80
2022-09-12T01:14:39.065Z,12.63
2022-09-12T01:16:10.983Z,13.45
2022-09-12T01:18:01.540Z,13.60
2022-09-12T01:19:39.536Z,12.23
2022-09-12T01:21:11.346Z,13.35
2022-09-12T01:22:43.902Z,12.97
2022-09-12T01:24:30.742Z,12.75
2022-09-12T01:26:20.928Z,13.48
2022-09-12T01:27:55.333Z,13.20
2022-09-12T01:29:35.686Z,14.85
2022-09-12T01:31:21.963Z,13.80
2022-09-12T01:33:06.128Z,14.18
2022-09-12T01:34:59.173Z,12.82
2022-09-12T01:36:31.053Z,14.00
2022-09-12T01:38:12.629Z,13.63
2022-09-12T01:40:03.500Z,14.65
2022-09-12T01:41:44.409Z,14.63
2022-09-12T01:43:24.953Z,14.65
2022-09-12T01:47:28.879Z,13.95
2022-09-12T01:49:03.177Z,16.60
2022-09-12T01:50:38.021Z,15.82
2022-09-12T01:52:21.813Z,16.13
2022-09-12T01:53:57.889Z,16.20
2022-09-12T01:55:34.959Z,15.60
2022-09-12T01:57:11.602Z,15.95
2022-09-12T01:58:45.948Z,16.25
2022-09-12T02:00:17.837Z,17.52
2022-09-12T02:01:59.650Z,16.52
2022-09-12T02:03:33.987Z,15.35
2022-09-12T02:05:29.592Z,15.88
2022-09-12T02:07:25.859Z,15.75
2022-09-12T02:09:23.822Z,16.58
2022-09-12T02:10:58.042Z,18.17
2022-09-12T02:12:32.662Z,17.45
2022-09-12T02:14:06.752Z,18.75
2022-09-12T02:15:40.366Z,19.02
2022-09-12T02:17:18.717Z,18.08
2022-09-12T02:19:07.679Z,18.02
2022-09-12T02:20:48.260Z,19.30
2022-09-12T02:22:21.936Z,21.05
2022-09-12T02:23:56.108Z,20.08
2022-09-12T02:25:29.444Z,21.75
2022-09-12T02:27:06.229Z,21.27
2022-09-12T02:28:42.380Z,21.90
2022-09-12T02:30:16.726Z,23.40
2022-09-12T02:34:06.210Z,23.02
2022-09-12T02:35:49.407Z,23.85
2022-09-12T02:38:53.582Z,23.55
2022-09-12T02:40:29.017Z,24.50
2022-09-12T02:42:09.832Z,25.75
2022-09-12T02:43:41.803Z,24.98
2022-09-12T02:45:19.743Z,23.97
2022-09-12T02:46:53.689Z,25.23
2022-09-12T02:48:34.640Z,26.15
2022-09-12T02:50:08.232Z,25.90
2022-09-12T02:51:40.278Z,26.63
2022-09-12T02:53:12.015Z,22.25
2022-09-12T02:54:44.381Z,25.15
2022-09-12T02:56:23.032Z,25.42
2022-09-12T02:57:54.754Z,24.50
2022-09-12T02:59:26.715Z,24.17
2022-09-12T03:01:12.734Z,22.35
2022-09-12T03:02:53.471Z,23.40
2022-09-12T03:04:31.078Z,24.38
2022-09-12T03:06:06.924Z,24.67
2022-09-12T03:07:45.105Z,24.15
2022-09-12T03:09:20.820Z,26.10
2022-09-12T03:10:52.871Z,25.20
2022-09-12T03:12:27.602Z,25.08
2022-09-12T03:14:17.414Z,26.17
2022-09-12T03:15:55.823Z,25.05
2022-09-12T03:17:33.503Z,24.92
2022-09-12T03:19:24.139Z,25.73
2022-09-12T03:20:58.677Z,26.73
2022-09-12T03:22:49.302Z,23.70
2022-09-12T03:24:29.515Z,23.95
2022-09-12T03:26:04.352Z,23.38
2022-09-12T03:27:41.281Z,25.08
2022-09-12T03:29:15.120Z,24.35
2022-09-12T03:30:49.042Z,23.85
2022-09-12T03:32:20.875Z,24.15
2022-09-12T03:33:58.743Z,23.88
2022-09-12T03:35:31.756Z,25.83
2022-09-12T03:37:03.611Z,25.10
2022-09-12T03:38:35.437Z,25.00
2022-09-12T03:40:08.706Z,24.40
2022-09-12T03:41:40.541Z,25.13
2022-09-12T03:43:12.572Z,27.42
2022-09-12T03:44:44.301Z,27.20
2022-09-12T03:46:16.109Z,28.65
2022-09-12T03:47:48.816Z,29.40
2022-09-12T03:49:20.592Z,28.15
2022-09-12T03:50:52.351Z,27.67
2022-09-12T03:52:24.199Z,27.08
2022-09-12T03:53:58.226Z,26.10
2022-09-12T03:55:29.935Z,26.20
2022-09-12T03:57:01.710Z,26.65
2022-09-12T03:58:34.095Z,25.17
2022-09-12T04:00:07.163Z,26.70
2022-09-12T04:01:44.235Z,27.67
2022-09-12T04:03:17.057Z,26.73
2022-09-12T04:06:22.523Z,25.95
2022-09-12T04:09:25.910Z,27.35
2022-09-12T04:11:08.106Z,27.23
2022-09-12T04:12:39.917Z,28.67
2022-09-12T04:14:11.622Z,28.52
2022-09-12T04:15:43.425Z,28.92
2022-09-12T04:17:15.284Z,27.80
2022-09-12T04:18:47.295Z,26.15
2022-09-12T04:20:22.327Z,26.65
2022-09-12T04:21:54.341Z,26.67
2022-09-12T04:23:26.066Z,27.23
2022-09-12T04:24:57.777Z,25.60
2022-09-12T04:26:30.025Z,26.60
2022-09-12T04:28:01.753Z,27.33
2022-09-12T04:29:33.619Z,29.15
2022-09-12T04:31:09.644Z,29.20
2022-09-12T04:32:41.596Z,29.40
2022-09-12T04:34:13.306Z,27.20
2022-09-12T04:35:45.627Z,27.73
2022-09-12T04:37:17.334Z,26.35
2022-09-12T04:38:49.498Z,27.63
2022-09-12T04:40:21.366Z,29.05
2022-09-12T04:41:53.084Z,30.40
2022-09-12T04:43:24.837Z,29.38
2022-09-12T04:44:56.577Z,29.33
2022-09-12T04:46:29.577Z,32.88
2022-09-12T04:48:01.621Z,28.80
2022-09-12T04:49:33.620Z,29.48
2022-09-12T04:51:14.285Z,31.40
2022-09-12T04:52:55.198Z,30.38
2022-09-12T04:54:26.956Z,32.45
2022-09-12T04:56:02.002Z,31.77
2022-09-12T04:57:33.840Z,30.90
2022-09-12T04:59:05.930Z,32.63
2022-09-12T05:00:38.086Z,31.88
2022-09-12T05:02:09.890Z,31.73
2022-09-12T05:03:43.628Z,34.08
2022-09-12T05:05:15.427Z,32.08
2022-09-12T05:06:47.641Z,33.08
2022-09-12T05:08:19.334Z,32.70
2022-09-12T05:09:51.105Z,35.10
2022-09-12T05:11:36.749Z,34.20
2022-09-12T05:13:25.937Z,33.67
2022-09-12T05:14:57.788Z,31.45
2022-09-12T05:16:31.533Z,33.97
2022-09-12T05:18:06.112Z,32.22
2022-09-12T05:19:38.043Z,35.47
2022-09-12T05:21:12.597Z,35.38
2022-09-12T05:22:44.539Z,34.40
2022-09-12T05:24:16.527Z,36.50
2022-09-12T05:25:49.734Z,35.77
2022-09-12T05:27:21.690Z,37.17
2022-09-12T05:28:56.958Z,35.83
2022-09-12T05:30:28.902Z,35.40
2022-09-12T05:32:00.885Z,37.47
2022-09-12T05:33:33.816Z,35.22
2022-09-12T05:35:08.766Z,36.10
2022-09-12T05:36:43.320Z,35.42
2022-09-12T05:38:15.291Z,36.05
2022-09-12T05:39:47.254Z,36.30
2022-09-12T05:41:24.671Z,35.43
2022-09-12T05:43:02.524Z,35.90
2022-09-12T05:44:37.525Z,35.22
2022-09-12T05:46:18.640Z,35.85
2022-09-12T05:47:53.127Z,36.13
2022-09-12T05:49:25.089Z,37.75
2022-09-12T05:51:01.665Z,38.53
2022-09-12T05:52:33.577Z,36.38
2022-09-12T05:54:06.551Z,36.07
2022-09-12T05:55:39.626Z,35.85
2022-09-12T05:57:11.570Z,37.92
2022-09-12T05:58:44.865Z,37.15
2022-09-12T06:00:17.487Z,37.20
2022-09-12T06:01:49.506Z,35.20
2022-09-12T06:03:21.600Z,36.78
2022-09-12T06:04:53.618Z,37.00
2022-09-12T06:06:25.895Z,38.33
2022-09-12T06:07:57.743Z,35.95
2022-09-12T06:09:32.334Z,36.33
2022-09-12T06:11:05.375Z,36.47
2022-09-12T06:12:37.505Z,35.92
2022-09-12T06:14:10.354Z,35.55
2022-09-12T06:17:15.707Z,34.30
2022-09-12T06:18:48.904Z,36.17
2022-09-12T06:20:21.122Z,34.95
2022-09-12T06:21:56.006Z,35.85
2022-09-12T06:23:27.968Z,33.65
2022-09-12T06:24:59.813Z,34.13
2022-09-12T06:26:31.780Z,34.38
2022-09-12T06:28:03.556Z,34.28
2022-09-12T06:29:35.495Z,34.35
2022-09-12T06:31:11.586Z,35.50
2022-09-12T06:32:43.551Z,34.67
2022-09-12T06:34:15.852Z,33.37
2022-09-12T06:35:47.669Z,34.63
2022-09-12T06:37:20.061Z,33.92
2022-09-12T06:39:17.726Z,33.70
2022-09-12T06:40:52.669Z,35.00
2022-09-12T06:42:24.840Z,34.13
2022-09-12T06:44:01.937Z,32.90
2022-09-12T06:45:33.769Z,33.28
2022-09-12T06:47:05.699Z,33.70
2022-09-12T06:48:41.805Z,34.27
2022-09-12T06:50:14.196Z,32.70
2022-09-12T06:51:46.032Z,34.08
2022-09-12T06:53:17.874Z,32.38
2022-09-12T06:54:50.037Z,33.47
2022-09-12T06:56:23.695Z,33.45
2022-09-12T06:57:58.251Z,33.10
2022-09-12T06:59:30.383Z,32.67
2022-09-12T07:01:12.640Z,33.10
2022-09-12T07:02:44.562Z,32.08
2022-09-12T07:04:16.612Z,33.00
2022-09-12T07:05:48.411Z,32.90
2022-09-12T07:07:20.365Z,31.83
2022-09-12T07:08:52.538Z,31.48
2022-09-12T07:10:24.299Z,32.75
2022-09-12T07:11:56.298Z,32.15
2022-09-12T07:13:28.199Z,31.27
2022-09-12T07:15:00.223Z,31.90
2022-09-12T07:16:32.253Z,32.17
2022-09-12T07:18:06.746Z,31.52
2022-09-12T07:19:38.509Z,31.17
2022-09-12T07:21:12.090Z,31.40
2022-09-12T07:22:43.951Z,31.38
2022-09-12T07:24:15.801Z,29.53
2022-09-12T07:25:52.706Z,31.52
2022-09-12T07:27:24.620Z,30.85
2022-09-12T07:29:12.789Z,31.97
2022-09-12T07:30:49.337Z,31.08
2022-09-12T07:32:21.128Z,31.92
2022-09-12T07:33:54.777Z,31.02
2022-09-12T07:35:26.930Z,30.42
2022-09-12T07:36:58.950Z,31.00
2022-09-12T07:38:31.275Z,31.23
2022-09-12T07:40:03.271Z,31.50
2022-09-12T07:41:36.572Z,33.00
2022-09-12T07:43:08.319Z,32.90
2022-09-12T07:44:40.364Z,32.10
2022-09-12T07:46:12.538Z,30.63
2022-09-12T07:47:45.251Z,30.65
2022-09-12T07:49:17.510Z,31.25
2022-09-12T07:50:57.539Z,30.35
2022-09-12T07:52:29.660Z,28.23
2022-09-12T07:54:01.429Z,28.65
2022-09-12T07:55:33.247Z,29.13
2022-09-12T07:57:05.072Z,29.52
2022-09-12T07:58:37.951Z,28.08
2022-09-12T08:01:48.980Z,27.77
2022-09-12T08:03:20.847Z,27.10
2022-09-12T08:04:53.031Z,26.90
2022-09-12T08:06:25.672Z,25.25
2022-09-12T08:07:57.889Z,26.38
2022-09-12T08:09:30.190Z,26.27
2022-09-12T08:11:03.295Z,25.75
2022-09-12T08:12:35.111Z,27.23
2022-09-12T08:14:06.888Z,26.30
2022-09-12T08:15:38.738Z,26.75
2022-09-12T08:17:11.180Z,25.05
2022-09-12T08:18:42.897Z,25.83
2022-09-12T08:20:14.788Z,25.60
2022-09-12T08:21:46.510Z,25.03
2022-09-12T08:23:21.374Z,25.38
2022-09-12T08:24:53.801Z,24.45
2022-09-12T08:26:25.958Z,24.88
2022-09-12T08:27:57.630Z,25.02
2022-09-12T08:29:29.312Z,23.83
2022-09-12T08:31:05.501Z,23.10
2022-09-12T08:32:37.542Z,22.10
2022-09-12T08:34:09.253Z,22.27
2022-09-12T08:35:41.147Z,22.58
2022-09-12T08:37:12.937Z,23.03
2022-09-12T08:38:45.349Z,21.67
2022-09-12T08:40:17.360Z,20.63
2022-09-12T08:41:55.089Z,23.92
2022-09-12T08:43:45.101Z,21.02
2022-09-12T08:45:32.889Z,20.35
2022-09-12T08:47:07.128Z,21.05
2022-09-12T08:48:39.123Z,20.33
2022-09-12T08:50:11.784Z,17.35
2022-09-12T08:51:44.973Z,17.58
2022-09-12T08:53:20.541Z,18.77
2022-09-12T08:54:52.658Z,18.65
2022-09-12T08:56:31.536Z,18.33
2022-09-12T08:58:20.337Z,17.65
2022-09-12T08:59:53.218Z,17.60
2022-09-12T09:01:31.522Z,16.70
2022-09-12T09:03:21.759Z,14.43
2022-09-12T09:05:01.805Z,13.55
2022-09-12T09:06:39.202Z,14.40
2022-09-12T09:08:19.727Z,15.27
2022-09-12T09:09:57.325Z,13.75
2022-09-12T09:11:34.183Z,13.52
2022-09-12T09:13:39.176Z,13.80
2022-09-12T09:15:11.569Z,13.43
2022-09-12T09:16:44.423Z,11.70
2022-09-12T09:18:21.370Z,11.40
2022-09-12T09:20:05.768Z,11.38
2022-09-12T09:21:40.435Z,12.00
2022-09-12T09:23:19.374Z,11.25
2022-09-12T09:24:53.478Z,10.27
2022-09-12T09:26:30.654Z,10.07
2022-09-12T09:28:04.923Z,11.25
2022-09-12T09:29:39.481Z,10.13
2022-09-12T09:31:14.818Z,10.57
2022-09-12T09:32:49.928Z,10.40
2022-09-12T09:34:23.290Z,9.13
2022-09-12T09:36:03.958Z,9.52
2022-09-12T09:37:41.219Z,8.57
2022-09-12T09:39:28.380Z,8.77
2022-09-12T09:41:03.075Z,9.18
2022-09-12T09:42:54.271Z,8.60
2022-09-12T09:44:28.546Z,8.95
2022-09-12T09:46:00.762Z,9.80
2022-09-12T09:47:32.645Z,8.23
2022-09-12T09:49:07.150Z,8.70
2022-09-12T09:50:39.230Z,8.65
2022-09-12T09:52:12.469Z,7.20
2022-09-12T09:53:48.660Z,7.30
2022-09-12T09:55:25.363Z,7.10
2022-09-12T09:56:57.212Z,7.07
2022-09-12T09:58:33.282Z,7.32
2022-09-12T10:00:34.626Z,7.18
2022-09-12T10:02:09.536Z,6.32
2022-09-12T10:03:47.729Z,5.35
2022-09-12T10:05:22.327Z,5.90
2022-09-12T10:06:54.914Z,5.05
2022-09-12T10:08:31.002Z,4.85
2022-09-12T10:10:19.048Z,6.07
2022-09-12T10:11:51.396Z,5.25
2022-09-12T10:13:32.683Z,5.40
2022-09-12T10:15:16.029Z,15.57
2022-09-12T10:16:54.051Z,13.00
2022-09-12T10:18:33.525Z,5.97
2022-09-12T10:20:22.178Z,5.97
2022-09-12T10:21:56.332Z,10.88
2022-09-12T10:23:42.496Z,5.47
2022-09-12T10:25:18.330Z,5.63
2022-09-12T10:27:10.339Z,5.00
2022-09-12T10:28:48.533Z,3.92
2022-09-12T10:30:21.069Z,5.43
2022-09-12T10:33:26.591Z,4.18
2022-09-12T10:35:02.727Z,3.70
2022-09-12T10:36:38.680Z,3.92
2022-09-12T10:38:30.503Z,4.20
2022-09-12T10:40:05.329Z,3.72
2022-09-12T10:41:38.518Z,4.32
2022-09-12T10:43:26.489Z,4.10
2022-09-12T10:45:00.722Z,3.15
2022-09-12T10:46:32.505Z,3.50
2022-09-12T10:48:22.984Z,3.60
2022-09-12T10:50:22.291Z,3.33
2022-09-12T10:51:55.642Z,3.42
2022-09-12T10:55:02.928Z,3.60
2022-09-12T10:56:39.182Z,3.67
2022-09-12T10:58:37.189Z,2.80
2022-09-12T11:00:20.537Z,3.40
2022-09-12T11:02:01.358Z,3.33
2022-09-12T11:03:59.263Z,3.10
2022-09-12T11:05:55.889Z,3.45
2022-09-12T11:07:27.672Z,3.42
2022-09-12T11:09:04.728Z,3.60
2022-09-12T11:10:44.547Z,3.28
2022-09-12T11:12:22.536Z,2.95
2022-09-12T11:14:12.611Z,2.78
2022-09-12T11:16:01.438Z,2.70
2022-09-12T18:35:39.708Z,4.82
2022-09-12T18:37:12.879Z,4.47
2022-09-12T18:38:44.766Z,5.20
2022-09-12T18:40:16.579Z,5.45
2022-09-12T18:41:48.316Z,5.20
2022-09-12T18:43:19.995Z,6.47
2022-09-12T18:44:52.053Z,5.20
2022-09-12T18:46:24.179Z,5.70
2022-09-12T18:47:56.193Z,5.75
2022-09-12T18:49:27.929Z,5.32
2022-09-12T18:51:06.822Z,4.63
2022-09-12T18:52:38.485Z,5.10
2022-09-12T18:54:12.375Z,5.05
2022-09-12T18:55:44.071Z,5.38
2022-09-12T18:57:15.743Z,5.07
2022-09-12T18:58:50.434Z,4.80
2022-09-12T19:00:28.805Z,5.10
2022-09-12T19:02:01.325Z,5.10
2022-09-12T19:03:33.065Z,7.45
2022-09-12T19:05:05.953Z,9.00
2022-09-12T19:08:09.927Z,8.57
2022-09-12T19:09:41.925Z,7.63
2022-09-12T19:11:14.203Z,7.53
2022-09-12T19:12:46.660Z,8.07
2022-09-12T19:14:22.832Z,8.05
2022-09-12T19:15:54.652Z,7.10
2022-09-12T19:17:26.687Z,5.82
2022-09-12T19:18:58.941Z,6.47
2022-09-12T19:20:30.650Z,6.30
2022-09-12T19:22:02.360Z,6.13
2022-09-12T19:23:34.364Z,6.15
2022-09-12T19:25:06.342Z,5.57
2022-09-12T19:26:39.068Z,6.03
2022-09-12T19:29:42.396Z,5.15
2022-09-12T19:31:15.954Z,5.73
2022-09-12T19:32:47.641Z,5.28
2022-09-12T19:34:19.311Z,6.35
2022-09-12T19:35:51.075Z,6.72
2022-09-12T19:37:22.724Z,6.73
2022-09-12T19:38:54.363Z,5.93
2022-09-12T19:40:26.050Z,6.75
2022-09-12T19:41:57.854Z,6.95
2022-09-12T19:43:30.790Z,6.37
2022-09-12T19:45:02.457Z,6.72
2022-09-12T19:46:34.380Z,6.43
2022-09-12T19:48:08.946Z,6.10
2022-09-12T19:49:40.620Z,5.28
2022-09-12T19:51:15.476Z,6.55
2022-09-12T19:52:47.128Z,5.78
2022-09-12T19:54:18.778Z,6.07
2022-09-12T19:55:50.468Z,5.63
2022-09-12T19:57:22.146Z,5.47
2022-09-12T19:58:56.587Z,5.75
2022-09-12T20:00:28.710Z,6.32
2022-09-12T20:02:02.029Z,6.37
2022-09-12T20:03:33.810Z,6.30
2022-09-12T20:05:05.771Z,6.32
2022-09-12T20:06:37.612Z,6.22
2022-09-12T20:08:09.947Z,6.40
2022-09-12T20:09:41.659Z,6.45
2022-09-12T20:11:17.750Z,6.80
2022-09-12T20:12:49.431Z,6.22
2022-09-12T20:14:22.314Z,5.90
2022-09-12T20:15:54.076Z,6.18
2022-09-12T20:17:25.808Z,7.40
2022-09-12T20:18:58.771Z,6.93
2022-09-12T20:20:31.108Z,6.43
2022-09-12T20:22:03.174Z,6.15
2022-09-12T20:23:34.860Z,7.20
2022-09-12T20:25:06.684Z,6.88
2022-09-12T20:26:38.656Z,7.60
2022-09-12T20:28:10.269Z,7.03
2022-09-12T20:29:42.145Z,7.38
2022-09-12T20:31:14.847Z,7.13
2022-09-12T20:32:46.865Z,7.75
2022-09-12T20:34:20.379Z,7.40
2022-09-12T20:35:52.018Z,7.93
2022-09-12T20:37:24.210Z,6.95
2022-09-12T20:38:57.925Z,7.35
2022-09-12T20:40:29.841Z,7.50
2022-09-12T20:42:01.444Z,6.63
2022-09-12T20:43:33.163Z,7.30
2022-09-12T20:45:05.034Z,6.85
2022-09-12T20:46:36.758Z,7.28
2022-09-12T20:48:08.486Z,6.78
2022-09-12T20:49:40.302Z,6.63
2022-09-12T20:51:14.542Z,7.20
2022-09-12T20:52:46.323Z,6.73
2022-09-12T20:54:18.003Z,7.50
2022-09-12T20:55:52.744Z,7.57
2022-09-12T20:57:24.527Z,7.38
2022-09-12T20:58:56.290Z,7.13
2022-09-12T21:00:28.602Z,7.28
2022-09-12T21:02:00.300Z,6.93
2022-09-12T21:03:31.987Z,6.43
2022-09-12T21:05:03.762Z,7.03
2022-09-12T21:06:35.491Z,7.40
2022-09-12T21:08:07.281Z,6.17
2022-09-12T21:09:39.589Z,6.80
2022-09-12T21:11:11.283Z,6.65
2022-09-12T21:12:42.966Z,7.10
2022-09-12T21:14:14.626Z,6.97
2022-09-12T21:15:46.387Z,7.20
2022-09-12T21:17:18.035Z,7.13
2022-09-12T21:18:54.120Z,7.13
2022-09-12T21:20:25.869Z,7.05
2022-09-12T21:21:57.604Z,7.28
2022-09-12T21:23:29.295Z,7.13
2022-09-12T21:25:00.912Z,6.68
2022-09-12T21:26:32.592Z,7.13
2022-09-12T21:28:04.264Z,7.30
2022-09-12T21:29:35.933Z,6.85
2022-09-12T21:31:07.640Z,6.70
2022-09-12T21:32:39.394Z,6.60
2022-09-12T21:34:11.052Z,6.90
2022-09-12T21:35:42.673Z,7.05
2022-09-12T21:37:14.333Z,7.05
2022-09-12T21:38:45.989Z,6.95
2022-09-12T21:40:17.792Z,6.55
2022-09-12T21:41:50.035Z,6.53
2022-09-12T21:43:21.728Z,7.70
2022-09-12T21:44:53.466Z,6.75
2022-09-12T21:46:25.195Z,6.45
2022-09-12T21:47:57.244Z,8.32
2022-09-12T21:49:28.912Z,6.75
2022-09-12T21:51:00.588Z,7.13
2022-09-12T21:52:32.336Z,7.30
2022-09-12T21:54:04.087Z,6.87
2022-09-12T21:55:35.776Z,7.40
2022-09-12T21:57:07.469Z,7.22
2022-09-12T21:58:39.400Z,7.13
2022-09-12T22:00:13.009Z,7.43
2022-09-12T22:01:50.266Z,6.80
2022-09-12T22:03:22.180Z,7.38
2022-09-12T22:04:56.628Z,7.32
2022-09-12T22:06:28.311Z,6.90
2022-09-12T22:08:00.902Z,6.72
2022-09-12T22:09:34.463Z,7.00
2022-09-12T22:11:09.350Z,6.38
2022-09-12T22:12:45.941Z,6.90
2022-09-12T22:14:18.061Z,7.00
2022-09-12T22:15:50.471Z,7.63
2022-09-12T22:17:22.588Z,7.53
2022-09-12T22:18:54.465Z,6.78
2022-09-12T22:20:26.153Z,7.63
2022-09-12T22:22:16.468Z,8.00
2022-09-12T22:24:06.738Z,7.50
2022-09-12T22:25:38.459Z,7.65
2022-09-12T22:27:10.174Z,7.35
2022-09-12T22:28:42.776Z,6.97
2022-09-12T22:30:14.454Z,7.47
2022-09-12T22:31:46.270Z,7.95
2022-09-12T22:33:18.000Z,7.30
2022-09-12T22:34:49.899Z,7.68
2022-09-12T22:36:21.617Z,8.20
2022-09-12T22:37:53.323Z,7.72
2022-09-12T22:39:25.017Z,7.82
2022-09-12T22:40:58.053Z,7.65
2022-09-12T22:42:31.321Z,8.15
2022-09-12T22:44:03.083Z,8.18
2022-09-12T22:45:34.795Z,7.43
2022-09-12T22:47:06.552Z,7.25
2022-09-12T22:48:38.413Z,7.68
2022-09-12T22:50:10.048Z,7.67
2022-09-12T22:51:41.741Z,7.85
2022-09-12T22:53:13.425Z,7.30
2022-09-12T22:54:45.315Z,8.23
2022-09-12T22:56:17.061Z,7.93
2022-09-12T22:57:49.138Z,8.57
2022-09-12T22:59:20.828Z,7.50
2022-09-12T23:00:52.514Z,8.35
2022-09-12T23:02:24.232Z,8.23
2022-09-12T23:03:55.882Z,8.63
2022-09-12T23:05:28.123Z,8.38
2022-09-12T23:07:00.153Z,7.72
2022-09-12T23:08:32.189Z,8.93
2022-09-12T23:10:03.938Z,8.85
2022-09-12T23:11:35.591Z,7.70
2022-09-12T23:13:07.503Z,8.73
2022-09-12T23:14:39.195Z,8.05
2022-09-12T23:16:14.885Z,9.23
2022-09-12T23:17:46.562Z,7.95
2022-09-12T23:19:18.310Z,7.97
2022-09-12T23:21:16.117Z,7.93
2022-09-12T23:22:47.817Z,8.13
2022-09-12T23:24:19.497Z,8.05
2022-09-12T23:26:01.323Z,7.82
2022-09-12T23:27:33.015Z,8.35
2022-09-12T23:29:05.848Z,8.18
2022-09-12T23:30:38.119Z,8.68
2022-09-12T23:32:09.777Z,8.88
2022-09-12T23:33:41.458Z,8.35
2022-09-12T23:35:13.075Z,7.93
2022-09-12T23:36:44.896Z,7.60
2022-09-12T23:38:16.618Z,8.20
2022-09-12T23:39:49.781Z,8.60
2022-09-12T23:41:22.560Z,8.65
2022-09-12T23:44:25.695Z,8.13
2022-09-12T23:45:58.002Z,8.20
2022-09-12T23:47:29.794Z,8.75
2022-09-12T23:49:01.447Z,9.32
2022-09-12T23:50:33.081Z,8.40
2022-09-12T23:52:04.895Z,7.80
2022-09-12T23:53:36.597Z,6.87
2022-09-12T23:55:08.545Z,7.20
2022-09-12T23:56:40.246Z,7.07
2022-09-12T23:58:12.293Z,7.40
2022-09-12T23:59:43.917Z,7.90
